sensor_id;sensor_type;location;lat;lon;timestamp;P1;durP1;ratioP1;P2;durP2;ratioP2
22565;SDS011;11449;51.330;19.378;2023-02-08T00:04:57;102.20;;;29.40;;
22565;SDS011;11449;51.330;19.378;2023-02-08T00:10:05;105.30;;;31.00;;
22565;SDS011;11449;51.330;19.378;2023-02-08T00:15:16;125.90;;;33.40;;
22565;SDS011;11449;51.330;19.378;2023-02-08T00:20:27;122.90;;;34.00;;
22565;SDS011;11449;51.330;19.378;2023-02-08T00:25:30;110.50;;;31.40;;
22565;SDS011;11449;51.330;19.378;2023-02-08T00:30:41;100.50;;;29.40;;
22565;SDS011;11449;51.330;19.378;2023-02-08T00:35:50;100.70;;;27.70;;
22565;SDS011;11449;51.330;19.378;2023-02-08T00:40:58;105.60;;;29.60;;
22565;SDS011;11449;51.330;19.378;2023-02-08T00:46:01;104.60;;;30.00;;
22565;SDS011;11449;51.330;19.378;2023-02-08T00:51:10;96.80;;;27.70;;
22565;SDS011;11449;51.330;19.378;2023-02-08T00:56:16;87.90;;;26.00;;
22565;SDS011;11449;51.330;19.378;2023-02-08T01:01:24;81.10;;;25.00;;
22565;SDS011;11449;51.330;19.378;2023-02-08T01:06:32;83.30;;;24.50;;
22565;SDS011;11449;51.330;19.378;2023-02-08T01:11:35;79.60;;;24.30;;
22565;SDS011;11449;51.330;19.378;2023-02-08T01:16:43;63.20;;;19.10;;
22565;SDS011;11449;51.330;19.378;2023-02-08T01:21:51;70.30;;;17.60;;
22565;SDS011;11449;51.330;19.378;2023-02-08T01:26:59;63.80;;;17.70;;
22565;SDS011;11449;51.330;19.378;2023-02-08T01:32:07;66.40;;;18.60;;
22565;SDS011;11449;51.330;19.378;2023-02-08T01:37:10;86.90;;;22.60;;
22565;SDS011;11449;51.330;19.378;2023-02-08T01:42:14;70.20;;;20.20;;
22565;SDS011;11449;51.330;19.378;2023-02-08T01:47:22;69.30;;;19.30;;
22565;SDS011;11449;51.330;19.378;2023-02-08T01:52:25;74.30;;;20.00;;
22565;SDS011;11449;51.330;19.378;2023-02-08T01:57:35;75.80;;;21.30;;
22565;SDS011;11449;51.330;19.378;2023-02-08T02:02:44;62.50;;;16.40;;
22565;SDS011;11449;51.330;19.378;2023-02-08T02:07:53;67.80;;;18.10;;
22565;SDS011;11449;51.330;19.378;2023-02-08T02:13:21;53.80;;;14.40;;
22565;SDS011;11449;51.330;19.378;2023-02-08T02:18:31;51.40;;;14.90;;
22565;SDS011;11449;51.330;19.378;2023-02-08T02:34:55;64.80;;;20.80;;
22565;SDS011;11449;51.330;19.378;2023-02-08T02:51:12;57.70;;;16.10;;
22565;SDS011;11449;51.330;19.378;2023-02-08T02:56:24;56.30;;;13.00;;
22565;SDS011;11449;51.330;19.378;2023-02-08T03:01:28;63.70;;;16.10;;
22565;SDS011;11449;51.330;19.378;2023-02-08T03:06:51;62.80;;;17.00;;
22565;SDS011;11449;51.330;19.378;2023-02-08T03:12:05;63.60;;;17.10;;
22565;SDS011;11449;51.330;19.378;2023-02-08T03:17:15;66.40;;;17.60;;
22565;SDS011;11449;51.330;19.378;2023-02-08T03:28:00;72.50;;;20.70;;
22565;SDS011;11449;51.330;19.378;2023-02-08T03:33:14;88.60;;;24.10;;
22565;SDS011;11449;51.330;19.378;2023-02-08T03:38:26;86.80;;;26.10;;
22565;SDS011;11449;51.330;19.378;2023-02-08T03:43:46;89.10;;;26.10;;
22565;SDS011;11449;51.330;19.378;2023-02-08T03:48:58;84.00;;;24.40;;
22565;SDS011;11449;51.330;19.378;2023-02-08T03:54:02;90.90;;;26.30;;
22565;SDS011;11449;51.330;19.378;2023-02-08T03:59:17;96.70;;;24.80;;
22565;SDS011;11449;51.330;19.378;2023-02-08T04:04:25;84.30;;;24.70;;
22565;SDS011;11449;51.330;19.378;2023-02-08T04:09:56;88.40;;;24.80;;
22565;SDS011;11449;51.330;19.378;2023-02-08T04:15:04;88.20;;;24.60;;
22565;SDS011;11449;51.330;19.378;2023-02-08T04:20:11;86.60;;;24.30;;
22565;SDS011;11449;51.330;19.378;2023-02-08T04:25:22;107.40;;;25.20;;
22565;SDS011;11449;51.330;19.378;2023-02-08T04:35:37;121.50;;;29.10;;
22565;SDS011;11449;51.330;19.378;2023-02-08T04:40:45;100.20;;;25.40;;
22565;SDS011;11449;51.330;19.378;2023-02-08T04:45:53;100.10;;;24.70;;
22565;SDS011;11449;51.330;19.378;2023-02-08T04:50:57;74.70;;;22.60;;
22565;SDS011;11449;51.330;19.378;2023-02-08T04:56:05;81.60;;;23.40;;
22565;SDS011;11449;51.330;19.378;2023-02-08T05:01:12;76.20;;;23.10;;
22565;SDS011;11449;51.330;19.378;2023-02-08T05:06:23;101.30;;;25.10;;
22565;SDS011;11449;51.330;19.378;2023-02-08T05:11:31;118.10;;;25.60;;
22565;SDS011;11449;51.330;19.378;2023-02-08T05:16:34;117.20;;;26.00;;
22565;SDS011;11449;51.330;19.378;2023-02-08T05:21:37;114.70;;;26.90;;
22565;SDS011;11449;51.330;19.378;2023-02-08T05:26:40;90.60;;;24.40;;
22565;SDS011;11449;51.330;19.378;2023-02-08T05:31:55;76.40;;;20.90;;
22565;SDS011;11449;51.330;19.378;2023-02-08T05:37:06;92.70;;;26.40;;
22565;SDS011;11449;51.330;19.378;2023-02-08T05:47:20;78.30;;;21.30;;
22565;SDS011;11449;51.330;19.378;2023-02-08T05:52:31;91.00;;;22.50;;
22565;SDS011;11449;51.330;19.378;2023-02-08T05:57:42;81.60;;;21.90;;
22565;SDS011;11449;51.330;19.378;2023-02-08T06:02:56;81.70;;;20.50;;
22565;SDS011;11449;51.330;19.378;2023-02-08T06:08:02;84.00;;;20.80;;
22565;SDS011;11449;51.330;19.378;2023-02-08T06:13:10;90.00;;;21.80;;
22565;SDS011;11449;51.330;19.378;2023-02-08T06:18:18;87.00;;;26.20;;
22565;SDS011;11449;51.330;19.378;2023-02-08T06:23:31;108.40;;;27.70;;
22565;SDS011;11449;51.330;19.378;2023-02-08T06:28:39;107.60;;;27.80;;
22565;SDS011;11449;51.330;19.378;2023-02-08T06:33:49;78.30;;;21.50;;
22565;SDS011;11449;51.330;19.378;2023-02-08T06:38:57;86.80;;;23.00;;
22565;SDS011;11449;51.330;19.378;2023-02-08T06:44:05;79.40;;;21.50;;
22565;SDS011;11449;51.330;19.378;2023-02-08T06:49:33;86.10;;;21.50;;
22565;SDS011;11449;51.330;19.378;2023-02-08T06:54:41;87.00;;;21.10;;
22565;SDS011;11449;51.330;19.378;2023-02-08T06:59:49;84.20;;;21.10;;
22565;SDS011;11449;51.330;19.378;2023-02-08T07:04:54;76.00;;;23.80;;
22565;SDS011;11449;51.330;19.378;2023-02-08T07:10:02;86.00;;;22.70;;
22565;SDS011;11449;51.330;19.378;2023-02-08T07:15:05;77.90;;;22.20;;
22565;SDS011;11449;51.330;19.378;2023-02-08T07:20:13;86.30;;;26.40;;
22565;SDS011;11449;51.330;19.378;2023-02-08T07:25:21;102.30;;;24.00;;
22565;SDS011;11449;51.330;19.378;2023-02-08T07:30:38;76.30;;;21.60;;
22565;SDS011;11449;51.330;19.378;2023-02-08T07:35:45;87.40;;;22.30;;
22565;SDS011;11449;51.330;19.378;2023-02-08T07:40:48;74.10;;;22.80;;
22565;SDS011;11449;51.330;19.378;2023-02-08T07:45:56;90.70;;;22.60;;
22565;SDS011;11449;51.330;19.378;2023-02-08T07:51:06;73.90;;;22.40;;
22565;SDS011;11449;51.330;19.378;2023-02-08T07:56:15;76.70;;;19.40;;
22565;SDS011;11449;51.330;19.378;2023-02-08T08:01:23;85.00;;;19.90;;
22565;SDS011;11449;51.330;19.378;2023-02-08T08:06:31;86.00;;;21.70;;
22565;SDS011;11449;51.330;19.378;2023-02-08T08:11:38;94.90;;;23.90;;
22565;SDS011;11449;51.330;19.378;2023-02-08T08:16:46;95.10;;;24.30;;
22565;SDS011;11449;51.330;19.378;2023-02-08T08:21:54;80.70;;;23.50;;
22565;SDS011;11449;51.330;19.378;2023-02-08T08:27:05;211.00;;;31.30;;
22565;SDS011;11449;51.330;19.378;2023-02-08T08:32:13;83.10;;;20.60;;
22565;SDS011;11449;51.330;19.378;2023-02-08T08:37:16;91.90;;;21.50;;
22565;SDS011;11449;51.330;19.378;2023-02-08T08:42:19;85.80;;;19.90;;
22565;SDS011;11449;51.330;19.378;2023-02-08T08:47:29;82.00;;;21.70;;
22565;SDS011;11449;51.330;19.378;2023-02-08T08:52:42;70.30;;;18.90;;
22565;SDS011;11449;51.330;19.378;2023-02-08T08:58:08;93.30;;;21.20;;
22565;SDS011;11449;51.330;19.378;2023-02-08T09:03:14;91.00;;;21.00;;
22565;SDS011;11449;51.330;19.378;2023-02-08T09:08:22;144.50;;;26.00;;
22565;SDS011;11449;51.330;19.378;2023-02-08T09:13:33;87.60;;;22.20;;
22565;SDS011;11449;51.330;19.378;2023-02-08T09:18:42;96.30;;;26.40;;
22565;SDS011;11449;51.330;19.378;2023-02-08T09:23:48;95.80;;;23.80;;
22565;SDS011;11449;51.330;19.378;2023-02-08T09:28:56;81.90;;;21.10;;
22565;SDS011;11449;51.330;19.378;2023-02-08T09:34:07;92.20;;;23.80;;
22565;SDS011;11449;51.330;19.378;2023-02-08T09:39:16;103.70;;;23.20;;
22565;SDS011;11449;51.330;19.378;2023-02-08T09:44:33;81.40;;;21.30;;
22565;SDS011;11449;51.330;19.378;2023-02-08T09:49:57;72.40;;;19.20;;
22565;SDS011;11449;51.330;19.378;2023-02-08T09:55:25;83.70;;;22.50;;
22565;SDS011;11449;51.330;19.378;2023-02-08T10:00:43;82.90;;;22.00;;
22565;SDS011;11449;51.330;19.378;2023-02-08T10:05:52;78.40;;;21.30;;
22565;SDS011;11449;51.330;19.378;2023-02-08T10:11:04;78.30;;;19.60;;
22565;SDS011;11449;51.330;19.378;2023-02-08T10:16:15;79.90;;;20.20;;
22565;SDS011;11449;51.330;19.378;2023-02-08T10:32:24;81.70;;;17.50;;
22565;SDS011;11449;51.330;19.378;2023-02-08T10:37:35;81.50;;;17.40;;
22565;SDS011;11449;51.330;19.378;2023-02-08T10:42:45;84.70;;;19.40;;
22565;SDS011;11449;51.330;19.378;2023-02-08T10:47:53;53.50;;;11.40;;
22565;SDS011;11449;51.330;19.378;2023-02-08T10:53:02;56.50;;;13.30;;
22565;SDS011;11449;51.330;19.378;2023-02-08T10:58:28;54.30;;;13.00;;
22565;SDS011;11449;51.330;19.378;2023-02-08T11:04:00;54.40;;;13.50;;
22565;SDS011;11449;51.330;19.378;2023-02-08T11:09:03;65.70;;;15.70;;
22565;SDS011;11449;51.330;19.378;2023-02-08T11:14:15;61.90;;;13.80;;
22565;SDS011;11449;51.330;19.378;2023-02-08T11:19:34;44.20;;;13.10;;
22565;SDS011;11449;51.330;19.378;2023-02-08T11:24:53;49.60;;;15.30;;
22565;SDS011;11449;51.330;19.378;2023-02-08T11:30:18;54.40;;;13.60;;
22565;SDS011;11449;51.330;19.378;2023-02-08T11:35:32;81.50;;;18.20;;
22565;SDS011;11449;51.330;19.378;2023-02-08T11:40:36;73.80;;;16.80;;
22565;SDS011;11449;51.330;19.378;2023-02-08T11:45:39;91.00;;;21.80;;
22565;SDS011;11449;51.330;19.378;2023-02-08T11:50:51;110.30;;;32.80;;
22565;SDS011;11449;51.330;19.378;2023-02-08T11:56:14;29.00;;;15.40;;
22565;SDS011;11449;51.330;19.378;2023-02-08T12:01:24;10.60;;;5.30;;
22565;SDS011;11449;51.330;19.378;2023-02-08T12:06:43;9.00;;;4.80;;
22565;SDS011;11449;51.330;19.378;2023-02-08T12:17:25;15.50;;;7.00;;
22565;SDS011;11449;51.330;19.378;2023-02-08T12:22:39;15.30;;;8.00;;
22565;SDS011;11449;51.330;19.378;2023-02-08T12:27:52;82.70;;;18.00;;
22565;SDS011;11449;51.330;19.378;2023-02-08T12:49:35;69.80;;;11.60;;
22565;SDS011;11449;51.330;19.378;2023-02-08T12:54:45;79.30;;;13.10;;
22565;SDS011;11449;51.330;19.378;2023-02-08T13:00:00;82.00;;;12.60;;
22565;SDS011;11449;51.330;19.378;2023-02-08T13:05:18;110.30;;;20.60;;
22565;SDS011;11449;51.330;19.378;2023-02-08T13:10:37;56.40;;;9.70;;
22565;SDS011;11449;51.330;19.378;2023-02-08T13:21:25;57.20;;;10.20;;
22565;SDS011;11449;51.330;19.378;2023-02-08T13:26:55;61.00;;;10.30;;
22565;SDS011;11449;51.330;19.378;2023-02-08T13:37:31;65.20;;;11.50;;
22565;SDS011;11449;51.330;19.378;2023-02-08T13:42:39;61.40;;;10.20;;
22565;SDS011;11449;51.330;19.378;2023-02-08T13:47:59;55.70;;;9.30;;
22565;SDS011;11449;51.330;19.378;2023-02-08T13:53:07;49.70;;;9.30;;
22565;SDS011;11449;51.330;19.378;2023-02-08T14:03:20;62.50;;;10.30;;
22565;SDS011;11449;51.330;19.378;2023-02-08T14:08:45;63.50;;;15.60;;
22565;SDS011;11449;51.330;19.378;2023-02-08T14:13:57;44.90;;;8.80;;
22565;SDS011;11449;51.330;19.378;2023-02-08T14:24:27;55.20;;;12.60;;
22565;SDS011;11449;51.330;19.378;2023-02-08T14:29:40;53.80;;;9.60;;
22565;SDS011;11449;51.330;19.378;2023-02-08T14:34:48;47.50;;;9.50;;
22565;SDS011;11449;51.330;19.378;2023-02-08T14:45:33;54.50;;;7.80;;
22565;SDS011;11449;51.330;19.378;2023-02-08T14:50:49;61.40;;;11.40;;
22565;SDS011;11449;51.330;19.378;2023-02-08T14:55:58;54.40;;;9.40;;
22565;SDS011;11449;51.330;19.378;2023-02-08T15:01:05;58.90;;;9.00;;
22565;SDS011;11449;51.330;19.378;2023-02-08T15:17:01;62.40;;;10.60;;
22565;SDS011;11449;51.330;19.378;2023-02-08T15:22:18;62.70;;;11.90;;
22565;SDS011;11449;51.330;19.378;2023-02-08T15:27:27;84.10;;;12.40;;
22565;SDS011;11449;51.330;19.378;2023-02-08T15:32:30;68.80;;;9.80;;
22565;SDS011;11449;51.330;19.378;2023-02-08T15:37:38;76.20;;;10.10;;
22565;SDS011;11449;51.330;19.378;2023-02-08T15:42:50;82.70;;;11.10;;
22565;SDS011;11449;51.330;19.378;2023-02-08T15:47:58;67.40;;;9.10;;
22565;SDS011;11449;51.330;19.378;2023-02-08T15:53:10;69.70;;;10.20;;
22565;SDS011;11449;51.330;19.378;2023-02-08T15:58:27;89.40;;;11.80;;
22565;SDS011;11449;51.330;19.378;2023-02-08T16:03:36;73.40;;;10.80;;
22565;SDS011;11449;51.330;19.378;2023-02-08T16:08:45;66.80;;;11.10;;
22565;SDS011;11449;51.330;19.378;2023-02-08T16:13:56;78.10;;;12.70;;
22565;SDS011;11449;51.330;19.378;2023-02-08T16:19:04;110.00;;;19.90;;
22565;SDS011;11449;51.330;19.378;2023-02-08T16:29:31;91.70;;;23.20;;
22565;SDS011;11449;51.330;19.378;2023-02-08T16:34:34;76.30;;;16.60;;
22565;SDS011;11449;51.330;19.378;2023-02-08T16:39:53;64.10;;;13.60;;
22565;SDS011;11449;51.330;19.378;2023-02-08T16:50:20;65.90;;;13.60;;
22565;SDS011;11449;51.330;19.378;2023-02-08T16:55:29;75.10;;;13.60;;
22565;SDS011;11449;51.330;19.378;2023-02-08T17:00:38;83.10;;;13.80;;
22565;SDS011;11449;51.330;19.378;2023-02-08T17:05:46;74.40;;;13.20;;
22565;SDS011;11449;51.330;19.378;2023-02-08T17:10:53;63.00;;;11.00;;
22565;SDS011;11449;51.330;19.378;2023-02-08T17:16:00;60.20;;;14.60;;
22565;SDS011;11449;51.330;19.378;2023-02-08T17:21:08;69.90;;;16.70;;
22565;SDS011;11449;51.330;19.378;2023-02-08T17:26:17;87.60;;;22.30;;
22565;SDS011;11449;51.330;19.378;2023-02-08T17:31:26;115.00;;;27.00;;
22565;SDS011;11449;51.330;19.378;2023-02-08T17:36:37;112.30;;;25.70;;
22565;SDS011;11449;51.330;19.378;2023-02-08T17:41:40;159.30;;;36.60;;
22565;SDS011;11449;51.330;19.378;2023-02-08T17:46:48;122.80;;;32.50;;
22565;SDS011;11449;51.330;19.378;2023-02-08T17:52:03;98.70;;;30.10;;
22565;SDS011;11449;51.330;19.378;2023-02-08T17:57:11;77.00;;;22.40;;
22565;SDS011;11449;51.330;19.378;2023-02-08T18:02:19;93.20;;;25.20;;
22565;SDS011;11449;51.330;19.378;2023-02-08T18:07:21;92.30;;;25.70;;
22565;SDS011;11449;51.330;19.378;2023-02-08T18:12:25;96.20;;;25.80;;
22565;SDS011;11449;51.330;19.378;2023-02-08T18:17:33;100.50;;;26.50;;
22565;SDS011;11449;51.330;19.378;2023-02-08T18:22:42;99.20;;;27.30;;
22565;SDS011;11449;51.330;19.378;2023-02-08T18:27:50;138.90;;;41.50;;
22565;SDS011;11449;51.330;19.378;2023-02-08T18:32:53;146.00;;;49.20;;
22565;SDS011;11449;51.330;19.378;2023-02-08T18:38:00;97.80;;;29.40;;
22565;SDS011;11449;51.330;19.378;2023-02-08T18:43:08;115.40;;;31.80;;
22565;SDS011;11449;51.330;19.378;2023-02-08T18:48:26;115.30;;;31.60;;
22565;SDS011;11449;51.330;19.378;2023-02-08T18:53:35;111.90;;;32.80;;
22565;SDS011;11449;51.330;19.378;2023-02-08T18:58:43;115.80;;;32.00;;
22565;SDS011;11449;51.330;19.378;2023-02-08T19:03:46;116.10;;;31.50;;
22565;SDS011;11449;51.330;19.378;2023-02-08T19:08:50;120.20;;;32.00;;
22565;SDS011;11449;51.330;19.378;2023-02-08T19:13:54;101.50;;;30.40;;
22565;SDS011;11449;51.330;19.378;2023-02-08T19:19:03;126.20;;;33.80;;
22565;SDS011;11449;51.330;19.378;2023-02-08T19:24:11;132.50;;;32.60;;
22565;SDS011;11449;51.330;19.378;2023-02-08T19:29:15;178.10;;;46.40;;
22565;SDS011;11449;51.330;19.378;2023-02-08T19:34:18;197.90;;;50.10;;
22565;SDS011;11449;51.330;19.378;2023-02-08T19:39:25;168.30;;;40.50;;
22565;SDS011;11449;51.330;19.378;2023-02-08T19:44:28;324.60;;;89.50;;
22565;SDS011;11449;51.330;19.378;2023-02-08T19:49:45;283.70;;;78.60;;
22565;SDS011;11449;51.330;19.378;2023-02-08T19:54:53;269.80;;;74.20;;
22565;SDS011;11449;51.330;19.378;2023-02-08T20:00:03;275.60;;;75.30;;
22565;SDS011;11449;51.330;19.378;2023-02-08T20:05:13;271.10;;;66.30;;
22565;SDS011;11449;51.330;19.378;2023-02-08T20:10:21;227.00;;;60.40;;
22565;SDS011;11449;51.330;19.378;2023-02-08T20:15:29;130.80;;;35.30;;
22565;SDS011;11449;51.330;19.378;2023-02-08T20:20:46;211.50;;;63.20;;
22565;SDS011;11449;51.330;19.378;2023-02-08T20:26:03;264.90;;;69.60;;
22565;SDS011;11449;51.330;19.378;2023-02-08T20:31:07;196.50;;;51.90;;
22565;SDS011;11449;51.330;19.378;2023-02-08T20:36:12;263.10;;;68.50;;
22565;SDS011;11449;51.330;19.378;2023-02-08T20:41:18;161.50;;;42.70;;
22565;SDS011;11449;51.330;19.378;2023-02-08T20:46:27;155.30;;;38.90;;
22565;SDS011;11449;51.330;19.378;2023-02-08T20:51:37;132.80;;;36.30;;
22565;SDS011;11449;51.330;19.378;2023-02-08T20:56:45;150.90;;;41.50;;
22565;SDS011;11449;51.330;19.378;2023-02-08T21:01:55;129.90;;;32.00;;
22565;SDS011;11449;51.330;19.378;2023-02-08T21:07:03;134.50;;;36.30;;
22565;SDS011;11449;51.330;19.378;2023-02-08T21:12:11;132.60;;;40.40;;
22565;SDS011;11449;51.330;19.378;2023-02-08T21:17:19;126.80;;;38.30;;
22565;SDS011;11449;51.330;19.378;2023-02-08T21:22:27;135.80;;;38.00;;
22565;SDS011;11449;51.330;19.378;2023-02-08T21:27:35;116.30;;;30.20;;
22565;SDS011;11449;51.330;19.378;2023-02-08T21:32:40;145.40;;;35.30;;
22565;SDS011;11449;51.330;19.378;2023-02-08T21:37:49;105.70;;;27.80;;
22565;SDS011;11449;51.330;19.378;2023-02-08T21:43:17;108.20;;;29.20;;
22565;SDS011;11449;51.330;19.378;2023-02-08T21:48:28;142.30;;;43.80;;
22565;SDS011;11449;51.330;19.378;2023-02-08T21:53:36;116.30;;;34.40;;
22565;SDS011;11449;51.330;19.378;2023-02-08T21:59:17;132.70;;;40.60;;
22565;SDS011;11449;51.330;19.378;2023-02-08T22:04:25;127.90;;;40.50;;
22565;SDS011;11449;51.330;19.378;2023-02-08T22:09:33;125.40;;;37.50;;
22565;SDS011;11449;51.330;19.378;2023-02-08T22:14:41;112.20;;;33.80;;
22565;SDS011;11449;51.330;19.378;2023-02-08T22:19:49;159.00;;;40.20;;
22565;SDS011;11449;51.330;19.378;2023-02-08T22:25:17;147.20;;;41.40;;
22565;SDS011;11449;51.330;19.378;2023-02-08T22:30:25;124.50;;;39.30;;
22565;SDS011;11449;51.330;19.378;2023-02-08T22:35:28;137.10;;;39.70;;
22565;SDS011;11449;51.330;19.378;2023-02-08T22:40:36;118.80;;;37.30;;
22565;SDS011;11449;51.330;19.378;2023-02-08T22:45:43;120.40;;;34.30;;
22565;SDS011;11449;51.330;19.378;2023-02-08T22:50:54;129.90;;;35.70;;
22565;SDS011;11449;51.330;19.378;2023-02-08T22:56:02;135.30;;;37.20;;
22565;SDS011;11449;51.330;19.378;2023-02-08T23:01:11;147.10;;;40.30;;
22565;SDS011;11449;51.330;19.378;2023-02-08T23:06:15;167.40;;;44.50;;
22565;SDS011;11449;51.330;19.378;2023-02-08T23:11:20;133.20;;;38.30;;
22565;SDS011;11449;51.330;19.378;2023-02-08T23:16:28;116.80;;;34.30;;
22565;SDS011;11449;51.330;19.378;2023-02-08T23:21:31;111.50;;;33.60;;
22565;SDS011;11449;51.330;19.378;2023-02-08T23:26:39;118.00;;;35.40;;
22565;SDS011;11449;51.330;19.378;2023-02-08T23:31:47;125.00;;;38.80;;
22565;SDS011;11449;51.330;19.378;2023-02-08T23:36:55;121.00;;;41.80;;
22565;SDS011;11449;51.330;19.378;2023-02-08T23:41:57;132.40;;;39.10;;
22565;SDS011;11449;51.330;19.378;2023-02-08T23:47:05;125.10;;;38.80;;
22565;SDS011;11449;51.330;19.378;2023-02-08T23:52:13;120.10;;;38.30;;
22565;SDS011;11449;51.330;19.378;2023-02-08T23:57:18;133.70;;;40.30;;
